Time;durP1;ratioP1;P1;durP2;ratioP2;P2;SDS_P1;SDS_P2;PMS_P1;PMS_P2;Temp;Humidity;BMP_temperature;BMP_pressure;BME280_temperature;BME280_humidity;BME280_pressure;Samples;Min_cycle;Max_cycle;Signal;HPM_P1;HPM_P2
2023/01/26 00:01:29;;;;;;;27.52;16.52;;;;;;;;;;1862931;77;21045;-58
2023/01/26 00:03:57;;;;;;;35.13;18.92;;;;;;;;;;1862838;77;21119;-58
2023/01/26 00:06:26;;;;;;;32.98;17.32;;;;;;;;;;1862972;76;21037;-58
2023/01/26 00:09:00;;;;;;;34.30;16.32;;;;;;;;;;1862801;77;21061;-58
2023/01/26 00:11:26;;;;;;;33.08;16.73;;;;;;;;;;1860665;77;21550;-57
2023/01/26 00:13:55;;;;;;;31.05;15.35;;;;;;;;;;1862869;77;21107;-57
2023/01/26 00:16:24;;;;;;;33.00;16.17;;;;;;;;;;1862834;77;21042;-58
2023/01/26 00:18:53;;;;;;;35.30;18.00;;;;;;;;;;1862829;77;21089;-57
2023/01/26 00:21:22;;;;;;;40.15;18.10;;;;;;;;;;1862832;77;21069;-57
2023/01/26 00:23:51;;;;;;;38.30;16.80;;;;;;;;;;1862856;77;21089;-58
2023/01/26 00:26:21;;;;;;;36.93;17.12;;;;;;;;;;1862819;77;21022;-58
2023/01/26 00:28:49;;;;;;;33.92;17.42;;;;;;;;;;1862888;77;21018;-57
2023/01/26 00:31:20;;;;;;;34.40;17.92;;;;;;;;;;1862788;77;21116;-58
2023/01/26 00:33:49;;;;;;;35.50;17.80;;;;;;;;;;1862906;77;21026;-58
2023/01/26 00:36:17;;;;;;;28.83;17.15;;;;;;;;;;1862770;77;21120;-58
2023/01/26 00:38:46;;;;;;;33.20;16.30;;;;;;;;;;1862807;75;21061;-58
2023/01/26 00:44:02;;;;;;;37.48;16.48;;;;;;;;;;1862889;77;21058;-58
2023/01/26 00:46:31;;;;;;;25.97;14.75;;;;;;;;;;1862836;77;21082;-58
2023/01/26 00:49:01;;;;;;;29.75;16.12;;;;;;;;;;1862831;77;21058;-57
2023/01/26 00:51:29;;;;;;;28.42;14.63;;;;;;;;;;1862815;77;21050;-57
2023/01/26 00:53:58;;;;;;;34.00;17.77;;;;;;;;;;1862840;77;21148;-58
2023/01/26 00:56:26;;;;;;;34.30;15.65;;;;;;;;;;1862814;77;21141;-57
2023/01/26 00:58:55;;;;;;;32.90;14.93;;;;;;;;;;1862939;77;21037;-57
2023/01/26 01:01:23;;;;;;;36.58;17.48;;;;;;;;;;1863019;77;21029;-58
2023/01/26 01:03:52;;;;;;;35.83;16.25;;;;;;;;;;1862800;77;21109;-57
2023/01/26 01:06:20;;;;;;;35.83;16.70;;;;;;;;;;1862821;77;21018;-58
2023/01/26 01:08:51;;;;;;;33.18;14.20;;;;;;;;;;1862789;76;21065;-58
2023/01/26 01:11:19;;;;;;;30.68;15.35;;;;;;;;;;1863026;77;21058;-58
2023/01/26 01:13:48;;;;;;;36.10;15.80;;;;;;;;;;1862940;77;21119;-58
2023/01/26 01:16:17;;;;;;;32.23;16.15;;;;;;;;;;1862949;77;21062;-57
2023/01/26 01:18:46;;;;;;;28.73;14.55;;;;;;;;;;1862926;77;21119;-58
2023/01/26 01:21:16;;;;;;;33.75;15.10;;;;;;;;;;1862920;77;21093;-58
2023/01/26 01:23:44;;;;;;;32.60;13.75;;;;;;;;;;1862950;77;21030;-58
2023/01/26 01:26:13;;;;;;;27.93;14.50;;;;;;;;;;1862910;77;21065;-57
2023/01/26 01:28:43;;;;;;;28.60;16.45;;;;;;;;;;1863019;77;21097;-57
2023/01/26 01:31:13;;;;;;;34.08;14.45;;;;;;;;;;1862932;76;21045;-58
2023/01/26 01:33:42;;;;;;;28.07;13.38;;;;;;;;;;1863006;76;21360;-58
2023/01/26 01:36:11;;;;;;;28.92;13.60;;;;;;;;;;1862981;77;21432;-58
2023/01/26 01:38:40;;;;;;;34.10;15.65;;;;;;;;;;1863054;75;21104;-58
2023/01/26 01:41:09;;;;;;;37.93;14.90;;;;;;;;;;1862892;76;21062;-58
2023/01/26 01:43:38;;;;;;;26.90;13.62;;;;;;;;;;1862956;77;21069;-58
2023/01/26 01:46:07;;;;;;;64.17;18.50;;;;;;;;;;1862998;77;20998;-58
2023/01/26 01:48:49;;;;;;;54.33;19.07;;;;;;;;;;1863012;77;21051;-58
2023/01/26 01:51:22;;;;;;;38.92;18.65;;;;;;;;;;1863115;77;21555;-58
2023/01/26 01:53:51;;;;;;;67.30;21.02;;;;;;;;;;1862503;77;21103;-57
2023/01/26 01:56:21;;;;;;;57.75;22.30;;;;;;;;;;1862994;77;21018;-58
2023/01/26 01:58:52;;;;;;;114.72;24.12;;;;;;;;;;1862885;77;21084;-58
2023/01/26 02:01:20;;;;;;;100.87;22.42;;;;;;;;;;1862917;77;21038;-58
2023/01/26 02:03:51;;;;;;;71.22;23.77;;;;;;;;;;1863119;77;21570;-57
2023/01/26 02:06:20;;;;;;;64.03;22.02;;;;;;;;;;1862997;77;21014;-58
2023/01/26 02:08:50;;;;;;;108.05;22.25;;;;;;;;;;1862829;77;21054;-57
2023/01/26 02:11:26;;;;;;;61.45;22.60;;;;;;;;;;1862860;77;21002;-58
2023/01/26 02:13:56;;;;;;;57.67;20.12;;;;;;;;;;1862862;77;21503;-57
2023/01/26 02:16:24;;;;;;;70.67;22.42;;;;;;;;;;1862995;77;21033;-57
2023/01/26 02:18:53;;;;;;;40.92;19.87;;;;;;;;;;1862917;77;21076;-57
2023/01/26 02:21:23;;;;;;;64.77;20.32;;;;;;;;;;1863058;77;21073;-58
2023/01/26 02:24:05;;;;;;;50.23;21.75;;;;;;;;;;1862951;77;21171;-58
2023/01/26 02:26:35;;;;;;;51.65;22.35;;;;;;;;;;1862989;77;21006;-58
2023/01/26 02:29:08;;;;;;;53.42;20.60;;;;;;;;;;1862815;77;21115;-57
2023/01/26 02:31:39;;;;;;;56.73;23.15;;;;;;;;;;1862952;76;21099;-57
2023/01/26 02:34:08;;;;;;;75.17;30.90;;;;;;;;;;1862865;77;21109;-57
2023/01/26 02:36:37;;;;;;;75.92;30.57;;;;;;;;;;1862893;77;21078;-57
2023/01/26 02:39:13;;;;;;;97.10;38.13;;;;;;;;;;1858236;75;21141;-58
2023/01/26 02:44:29;;;;;;;86.08;32.10;;;;;;;;;;1853933;77;21066;-57
2023/01/26 02:46:58;;;;;;;167.37;56.92;;;;;;;;;;1854144;77;21175;-57
2023/01/26 02:52:14;;;;;;;155.75;55.00;;;;;;;;;;1853934;77;21562;-57
2023/01/26 02:57:33;;;;;;;124.97;41.90;;;;;;;;;;1853910;77;21038;-58
2023/01/26 03:00:02;;;;;;;103.97;36.83;;;;;;;;;;1853942;77;21014;-57
2023/01/26 03:02:31;;;;;;;61.58;26.93;;;;;;;;;;1853955;77;21018;-58
2023/01/26 03:05:00;;;;;;;112.95;41.65;;;;;;;;;;1853971;77;21050;-58
2023/01/26 03:07:28;;;;;;;89.92;35.58;;;;;;;;;;1853940;77;21054;-58
2023/01/26 03:10:02;;;;;;;63.02;26.52;;;;;;;;;;1853996;77;21171;-58
2023/01/26 03:12:27;;;;;;;74.25;30.70;;;;;;;;;;1852125;77;21132;-58
2023/01/26 03:17:43;;;;;;;83.97;33.18;;;;;;;;;;1853956;76;21058;-57
2023/01/26 03:28:32;;;;;;;48.87;21.45;;;;;;;;;;1853528;77;21155;-58
2023/01/26 03:31:02;;;;;;;70.65;30.15;;;;;;;;;;1853796;77;21121;-58
2023/01/26 03:33:31;;;;;;;92.02;34.35;;;;;;;;;;1853803;77;21547;-58
2023/01/26 03:36:01;;;;;;;90.83;32.67;;;;;;;;;;1853811;77;21121;-58
2023/01/26 03:38:30;;;;;;;83.17;29.90;;;;;;;;;;1854740;75;21054;-58
2023/01/26 03:57:40;;;;;;;78.62;29.57;;;;;;;;;;1862752;77;21203;-58
2023/01/26 04:00:09;;;;;;;68.07;28.05;;;;;;;;;;1862868;77;21116;-58
2023/01/26 04:08:23;;;;;;;95.95;32.42;;;;;;;;;;1862707;77;21198;-58
2023/01/26 04:11:02;;;;;;;65.03;25.02;;;;;;;;;;1862695;76;21096;-58
2023/01/26 04:21:55;;;;;;;61.28;23.83;;;;;;;;;;1862948;77;21120;-58
2023/01/26 04:24:23;;;;;;;48.10;20.50;;;;;;;;;;1862915;76;21419;-58
2023/01/26 04:26:53;;;;;;;38.90;19.82;;;;;;;;;;1862577;77;21061;-58
2023/01/26 04:29:24;;;;;;;52.17;20.77;;;;;;;;;;1861005;77;21151;-58
2023/01/26 04:31:52;;;;;;;49.63;22.98;;;;;;;;;;1862865;77;21029;-58
2023/01/26 04:34:22;;;;;;;36.90;19.32;;;;;;;;;;1862853;77;21330;-58
2023/01/26 04:36:51;;;;;;;48.63;21.00;;;;;;;;;;1862889;77;21038;-57
2023/01/26 04:39:21;;;;;;;51.53;18.95;;;;;;;;;;1864823;75;21057;-58
2023/01/26 04:41:51;;;;;;;40.85;20.55;;;;;;;;;;1870375;76;21117;-58
2023/01/26 04:44:20;;;;;;;33.40;17.90;;;;;;;;;;1871210;77;21091;-57
2023/01/26 04:46:49;;;;;;;40.65;19.80;;;;;;;;;;1871157;77;20998;-57
2023/01/26 04:49:18;;;;;;;33.95;18.25;;;;;;;;;;1871049;77;21017;-58
2023/01/26 04:51:47;;;;;;;37.95;18.65;;;;;;;;;;1871143;77;21014;-58
2023/01/26 04:54:16;;;;;;;44.03;20.75;;;;;;;;;;1871304;77;20998;-58
2023/01/26 04:56:45;;;;;;;45.67;19.12;;;;;;;;;;1871207;77;21029;-58
2023/01/26 04:59:14;;;;;;;49.67;21.37;;;;;;;;;;1871137;77;21148;-58
2023/01/26 05:01:44;;;;;;;49.70;19.87;;;;;;;;;;1871083;77;21077;-58
2023/01/26 05:04:13;;;;;;;40.03;20.90;;;;;;;;;;1871071;76;21131;-58
2023/01/26 05:06:43;;;;;;;37.42;19.77;;;;;;;;;;1870704;76;21054;-58
2023/01/26 05:09:11;;;;;;;45.10;21.82;;;;;;;;;;1870832;77;21022;-58
2023/01/26 05:11:41;;;;;;;58.35;22.27;;;;;;;;;;1870700;77;21050;-58
2023/01/26 05:14:18;;;;;;;48.80;24.45;;;;;;;;;;1870835;77;21124;-58
2023/01/26 05:16:48;;;;;;;65.50;26.05;;;;;;;;;;1868024;76;21025;-58
2023/01/26 05:19:18;;;;;;;58.45;22.67;;;;;;;;;;1866319;76;21029;-58
2023/01/26 05:21:57;;;;;;;50.00;24.23;;;;;;;;;;1869090;76;21050;-58
2023/01/26 05:24:26;;;;;;;51.08;21.95;;;;;;;;;;1871076;77;21143;-58
2023/01/26 05:27:23;;;;;;;47.80;21.35;;;;;;;;;;1871090;77;21504;-58
2023/01/26 05:29:32;;;;;;;53.95;25.70;;;;;;;;;;1861662;76;21480;-58
2023/01/26 05:32:02;;;;;;;57.30;25.40;;;;;;;;;;1871096;77;21030;-58
2023/01/26 05:34:32;;;;;;;58.08;21.87;;;;;;;;;;1870215;76;21058;-58
2023/01/26 05:37:00;;;;;;;56.83;23.70;;;;;;;;;;1871064;77;21018;-58
2023/01/26 05:39:30;;;;;;;44.95;23.25;;;;;;;;;;1873770;76;21026;-58
2023/01/26 05:42:00;;;;;;;53.38;28.38;;;;;;;;;;1892211;76;21091;-58
2023/01/26 05:44:38;;;;;;;74.35;34.55;;;;;;;;;;1793256;80;21151;-58
2023/01/26 05:47:15;;;;;;;57.33;28.07;;;;;;;;;;1892230;76;21077;-58
2023/01/26 05:49:45;;;;;;;70.05;30.82;;;;;;;;;;1891896;76;21013;-58
2023/01/26 05:52:15;;;;;;;59.67;30.72;;;;;;;;;;1891322;76;21116;-58
2023/01/26 05:54:44;;;;;;;60.05;29.90;;;;;;;;;;1892381;76;20985;-58
2023/01/26 05:57:15;;;;;;;50.70;27.82;;;;;;;;;;1892327;76;21356;-58
2023/01/26 05:59:45;;;;;;;40.17;21.42;;;;;;;;;;1891384;76;21495;-58
2023/01/26 06:02:13;;;;;;;52.05;23.18;;;;;;;;;;1892357;76;21076;-57
2023/01/26 06:04:43;;;;;;;53.50;23.32;;;;;;;;;;1891990;76;21100;-57
2023/01/26 06:07:15;;;;;;;36.80;19.67;;;;;;;;;;1892476;76;21025;-57
2023/01/26 06:09:49;;;;;;;44.30;21.60;;;;;;;;;;1890314;76;21091;-58
2023/01/26 06:12:30;;;;;;;41.33;20.45;;;;;;;;;;1887916;76;21036;-57
2023/01/26 06:15:00;;;;;;;64.53;23.77;;;;;;;;;;1892518;76;21130;-57
2023/01/26 06:17:30;;;;;;;62.65;28.47;;;;;;;;;;1882883;76;21091;-58
2023/01/26 06:20:00;;;;;;;71.30;30.00;;;;;;;;;;1891998;76;21061;-58
2023/01/26 06:22:30;;;;;;;66.65;28.00;;;;;;;;;;1891959;76;21025;-58
2023/01/26 06:24:59;;;;;;;73.97;31.07;;;;;;;;;;1892294;76;21021;-58
2023/01/26 06:27:28;;;;;;;76.95;31.30;;;;;;;;;;1892235;76;21083;-58
2023/01/26 06:29:58;;;;;;;68.92;28.62;;;;;;;;;;1892185;76;21083;-58
2023/01/26 06:32:28;;;;;;;94.47;32.58;;;;;;;;;;1892270;76;20985;-58
2023/01/26 06:34:56;;;;;;;78.02;30.90;;;;;;;;;;1892294;76;21103;-58
2023/01/26 06:37:26;;;;;;;77.05;28.92;;;;;;;;;;1892331;76;21076;-58
2023/01/26 06:39:55;;;;;;;73.75;28.77;;;;;;;;;;1889084;76;21029;-57
2023/01/26 06:42:23;;;;;;;66.10;27.58;;;;;;;;;;1862869;77;21116;-58
2023/01/26 06:44:52;;;;;;;61.50;27.48;;;;;;;;;;1863022;77;21112;-58
2023/01/26 06:47:21;;;;;;;78.20;27.90;;;;;;;;;;1862888;77;21121;-58
2023/01/26 06:49:50;;;;;;;66.60;28.45;;;;;;;;;;1862912;77;21160;-57
2023/01/26 06:52:20;;;;;;;69.20;26.97;;;;;;;;;;1862874;77;21021;-58
2023/01/26 06:54:50;;;;;;;91.78;27.87;;;;;;;;;;1862550;77;21030;-58
2023/01/26 06:57:23;;;;;;;59.18;23.25;;;;;;;;;;1856380;77;21085;-58
2023/01/26 07:00:08;;;;;;;;;;;;;;;;;;1864304;77;21064;-57
2023/01/26 07:02:38;;;;;;;91.80;23.73;;;;;;;;;;1861259;77;20141;-57
2023/01/26 07:05:07;;;;;;;61.10;23.98;;;;;;;;;;1862851;77;21135;-58
2023/01/26 07:07:35;;;;;;;102.92;23.52;;;;;;;;;;1862821;77;21038;-58
2023/01/26 07:10:05;;;;;;;139.52;29.50;;;;;;;;;;1862955;77;21088;-58
2023/01/26 07:12:41;;;;;;;80.10;31.10;;;;;;;;;;1862878;76;21163;-58
2023/01/26 07:15:10;;;;;;;75.30;30.27;;;;;;;;;;1862850;77;21065;-58
2023/01/26 07:17:39;;;;;;;111.65;31.25;;;;;;;;;;1862914;77;21111;-58
2023/01/26 07:20:08;;;;;;;84.97;27.98;;;;;;;;;;1862948;77;21022;-58
2023/01/26 07:22:37;;;;;;;88.45;32.05;;;;;;;;;;1862993;77;21108;-58
2023/01/26 07:25:06;;;;;;;88.25;30.02;;;;;;;;;;1862987;77;21057;-58
2023/01/26 07:27:34;;;;;;;84.72;28.57;;;;;;;;;;1862821;77;21050;-58
2023/01/26 07:30:03;;;;;;;76.33;30.45;;;;;;;;;;1862912;77;21044;-57
2023/01/26 07:32:31;;;;;;;102.20;29.30;;;;;;;;;;1862765;77;21057;-56
2023/01/26 07:35:00;;;;;;;78.60;26.50;;;;;;;;;;1861871;77;21108;-56
2023/01/26 07:37:29;;;;;;;61.55;24.35;;;;;;;;;;1858518;76;21413;-56
2023/01/26 07:40:03;;;;;;;51.33;25.60;;;;;;;;;;1852860;76;21045;-56
2023/01/26 07:42:39;;;;;;;81.15;26.02;;;;;;;;;;1886350;75;21133;-56
2023/01/26 07:45:18;;;;;;;74.17;30.70;;;;;;;;;;1881877;76;21100;-57
2023/01/26 07:47:58;;;;;;;72.72;31.25;;;;;;;;;;1890102;76;21095;-57
2023/01/26 07:50:36;;;;;;;70.15;28.10;;;;;;;;;;1891638;76;21048;-58
2023/01/26 07:53:13;;;;;;;56.28;28.00;;;;;;;;;;1891835;76;21095;-58
2023/01/26 07:55:43;;;;;;;75.52;33.00;;;;;;;;;;1884321;76;21124;-60
2023/01/26 07:58:12;;;;;;;94.35;36.33;;;;;;;;;;1889031;76;21056;-60
2023/01/26 08:00:40;;;;;;;85.90;37.78;;;;;;;;;;1892018;76;21068;-60
2023/01/26 08:03:09;;;;;;;71.33;33.25;;;;;;;;;;1892055;76;20969;-61
2023/01/26 08:05:37;;;;;;;74.22;32.88;;;;;;;;;;1891393;76;21038;-58
2023/01/26 08:08:05;;;;;;;108.87;38.55;;;;;;;;;;1893786;76;21022;-61
2023/01/26 08:10:34;;;;;;;95.85;37.70;;;;;;;;;;1893338;76;21077;-60
2023/01/26 08:13:02;;;;;;;97.85;39.42;;;;;;;;;;1893690;75;21108;-61
2023/01/26 08:15:31;;;;;;;88.70;38.60;;;;;;;;;;1893628;76;21038;-61
2023/01/26 08:18:02;;;;;;;118.08;46.20;;;;;;;;;;1893554;76;21101;-60
2023/01/26 08:20:30;;;;;;;115.52;45.38;;;;;;;;;;1888587;76;21097;-60
2023/01/26 08:22:58;;;;;;;110.10;41.25;;;;;;;;;;1886964;76;21167;-60
2023/01/26 08:25:27;;;;;;;101.97;40.23;;;;;;;;;;1887210;76;21097;-60
2023/01/26 08:27:56;;;;;;;117.05;46.08;;;;;;;;;;1889968;76;21137;-62
2023/01/26 08:30:24;;;;;;;134.78;44.65;;;;;;;;;;1889591;76;21093;-63
2023/01/26 08:32:53;;;;;;;106.47;41.37;;;;;;;;;;1887946;76;21010;-62
2023/01/26 08:35:21;;;;;;;110.00;45.05;;;;;;;;;;1887074;76;21087;-62
2023/01/26 08:37:50;;;;;;;104.80;41.53;;;;;;;;;;1886908;76;21038;-62
2023/01/26 08:40:18;;;;;;;114.45;48.68;;;;;;;;;;1887863;76;21049;-63
2023/01/26 08:42:47;;;;;;;108.22;43.52;;;;;;;;;;1886973;75;21100;-54
2023/01/26 08:45:16;;;;;;;120.35;49.53;;;;;;;;;;1887040;76;21050;-53
2023/01/26 08:47:44;;;;;;;104.32;43.98;;;;;;;;;;1886911;76;21089;-53
2023/01/26 08:50:12;;;;;;;134.25;52.95;;;;;;;;;;1886327;76;21398;-54
2023/01/26 08:52:41;;;;;;;91.30;41.58;;;;;;;;;;1889116;76;21022;-54
2023/01/26 08:55:09;;;;;;;106.60;40.95;;;;;;;;;;1887870;76;21096;-55
2023/01/26 08:57:38;;;;;;;150.38;58.13;;;;;;;;;;1892623;76;21038;-54
2023/01/26 09:00:07;;;;;;;132.52;50.92;;;;;;;;;;1891836;76;21046;-62
2023/01/26 09:02:36;;;;;;;113.20;47.20;;;;;;;;;;1887843;76;21002;-62
2023/01/26 09:05:04;;;;;;;79.75;35.78;;;;;;;;;;1887029;76;21101;-62
2023/01/26 09:07:33;;;;;;;103.38;45.55;;;;;;;;;;1886954;76;21123;-62
2023/01/26 09:10:23;;;;;;;116.77;45.10;;;;;;;;;;1830670;78;21118;-62
2023/01/26 09:12:51;;;;;;;108.75;45.85;;;;;;;;;;1829430;78;21149;-62
2023/01/26 09:15:20;;;;;;;63.23;32.10;;;;;;;;;;1830665;78;21103;-62
2023/01/26 09:17:48;;;;;;;99.35;39.13;;;;;;;;;;1830570;78;21057;-54
2023/01/26 09:20:17;;;;;;;99.30;40.80;;;;;;;;;;1828979;78;21101;-56
2023/01/26 09:22:46;;;;;;;107.32;49.10;;;;;;;;;;1829168;78;21098;-56
2023/01/26 09:25:15;;;;;;;93.80;41.23;;;;;;;;;;1830814;78;21144;-56
2023/01/26 09:27:43;;;;;;;57.83;29.27;;;;;;;;;;1833114;78;21073;-56
2023/01/26 09:30:12;;;;;;;88.22;39.27;;;;;;;;;;1833419;78;21045;-56
2023/01/26 09:32:41;;;;;;;64.37;33.80;;;;;;;;;;1833095;78;21046;-56
2023/01/26 09:35:10;;;;;;;87.57;38.70;;;;;;;;;;1830328;78;21103;-56
2023/01/26 09:37:39;;;;;;;76.62;34.70;;;;;;;;;;1830310;78;21053;-56
2023/01/26 09:40:08;;;;;;;81.37;37.20;;;;;;;;;;1830024;78;21144;-56
2023/01/26 09:42:41;;;;;;;45.88;23.35;;;;;;;;;;1833026;78;21097;-56
2023/01/26 09:45:11;;;;;;;89.87;38.23;;;;;;;;;;1833413;78;21043;-56
2023/01/26 09:47:59;;;;;;;97.08;39.78;;;;;;;;;;1830246;77;21095;-56
2023/01/26 09:50:29;;;;;;;86.92;35.05;;;;;;;;;;1737938;82;21199;-56
2023/01/26 09:52:59;;;;;;;71.97;35.13;;;;;;;;;;1760474;81;21217;-55
2023/01/26 09:55:29;;;;;;;55.38;23.62;;;;;;;;;;1783050;78;21501;-55
2023/01/26 09:58:01;;;;;;;55.30;25.10;;;;;;;;;;1828245;78;21125;-55
2023/01/26 10:00:34;;;;;;;106.30;34.60;;;;;;;;;;1828553;78;21081;-56
2023/01/26 10:03:20;;;;;;;72.55;29.27;;;;;;;;;;1828174;78;21050;-57
2023/01/26 10:05:56;;;;;;;71.50;31.48;;;;;;;;;;1828271;78;21133;-57
2023/01/26 10:08:43;;;;;;;71.75;30.10;;;;;;;;;;1826579;78;21275;-56
2023/01/26 10:11:13;;;;;;;93.62;39.00;;;;;;;;;;1819768;79;21039;-56
2023/01/26 10:13:43;;;;;;;59.25;26.75;;;;;;;;;;1811970;79;21137;-56
2023/01/26 10:16:12;;;;;;;54.70;27.80;;;;;;;;;;1819741;79;21078;-56
2023/01/26 10:18:42;;;;;;;62.70;28.12;;;;;;;;;;1825903;78;21076;-56
2023/01/26 10:21:12;;;;;;;51.83;20.32;;;;;;;;;;1825745;78;21103;-56
2023/01/26 10:23:42;;;;;;;59.67;30.45;;;;;;;;;;1827331;78;21045;-56
2023/01/26 10:26:23;;;;;;;69.85;30.37;;;;;;;;;;1827434;78;21241;-55
2023/01/26 10:28:52;;;;;;;40.92;22.05;;;;;;;;;;1826384;78;21123;-56
2023/01/26 10:31:25;;;;;;;43.23;19.27;;;;;;;;;;1826319;78;21033;-56
2023/01/26 10:33:55;;;;;;;68.87;31.80;;;;;;;;;;1826454;75;21052;-56
2023/01/26 10:36:23;;;;;;;62.40;26.60;;;;;;;;;;1826827;78;21037;-63
2023/01/26 10:38:52;;;;;;;81.30;33.28;;;;;;;;;;1827405;78;21123;-63
2023/01/26 10:41:28;;;;;;;65.97;28.07;;;;;;;;;;1827513;78;21108;-63
2023/01/26 10:43:57;;;;;;;59.88;28.25;;;;;;;;;;1827468;78;21230;-64
2023/01/26 10:46:27;;;;;;;53.48;22.90;;;;;;;;;;1827023;78;21021;-62
2023/01/26 10:48:57;;;;;;;64.87;27.22;;;;;;;;;;1823290;78;21518;-63
2023/01/26 10:51:32;;;;;;;60.00;28.32;;;;;;;;;;1826505;78;21052;-62
2023/01/26 10:54:11;;;;;;;56.02;23.07;;;;;;;;;;1828395;77;21052;-63
2023/01/26 10:56:56;;;;;;;57.08;27.17;;;;;;;;;;1784455;78;21131;-62
2023/01/26 10:59:32;;;;;;;46.98;22.50;;;;;;;;;;1827509;78;21155;-63
2023/01/26 11:02:02;;;;;;;65.12;30.00;;;;;;;;;;1827578;78;21100;-63
2023/01/26 11:04:31;;;;;;;55.52;25.55;;;;;;;;;;1827400;78;21060;-63
2023/01/26 11:07:00;;;;;;;54.03;27.65;;;;;;;;;;1828146;78;21049;-62
2023/01/26 11:09:30;;;;;;;62.78;29.60;;;;;;;;;;1824675;77;21163;-63
2023/01/26 11:12:00;;;;;;;46.18;18.65;;;;;;;;;;1826911;78;21202;-63
2023/01/26 11:14:29;;;;;;;53.13;25.97;;;;;;;;;;1827111;78;21706;-62
2023/01/26 11:16:58;;;;;;;55.52;21.73;;;;;;;;;;1827164;78;21104;-62
2023/01/26 11:19:43;;;;;;;68.75;29.52;;;;;;;;;;1827287;78;21620;-60
2023/01/26 11:22:13;;;;;;;68.25;27.17;;;;;;;;;;1825818;77;21013;-59
2023/01/26 11:25:01;;;;;;;61.40;25.40;;;;;;;;;;1827420;78;21572;-61
2023/01/26 11:27:50;;;;;;;42.53;21.87;;;;;;;;;;1826120;78;21213;-55
2023/01/26 11:30:25;;;;;;;59.48;26.15;;;;;;;;;;1826810;78;21163;-55
2023/01/26 11:32:58;;;;;;;43.85;16.57;;;;;;;;;;1827063;78;21080;-56
2023/01/26 11:35:43;;;;;;;62.53;25.62;;;;;;;;;;1827157;78;21134;-55
2023/01/26 11:38:13;;;;;;;35.78;17.10;;;;;;;;;;1825503;78;21104;-55
2023/01/26 11:40:43;;;;;;;25.40;14.20;;;;;;;;;;1826982;78;21139;-55
2023/01/26 11:43:13;;;;;;;49.18;21.50;;;;;;;;;;1827242;78;21495;-55
2023/01/26 11:45:59;;;;;;;52.35;23.18;;;;;;;;;;1827516;78;21069;-55
2023/01/26 11:48:29;;;;;;;51.58;23.73;;;;;;;;;;1827725;78;21108;-54
2023/01/26 11:51:05;;;;;;;53.15;25.35;;;;;;;;;;1827123;78;21557;-56
2023/01/26 11:53:44;;;;;;;53.68;22.73;;;;;;;;;;1827359;78;21048;-54
2023/01/26 11:56:14;;;;;;;59.93;25.80;;;;;;;;;;1826575;78;21041;-54
2023/01/26 11:59:02;;;;;;;40.88;18.12;;;;;;;;;;1827569;78;21086;-54
2023/01/26 12:01:32;;;;;;;68.37;30.88;;;;;;;;;;1827818;78;21069;-56
2023/01/26 12:04:00;;;;;;;65.90;30.72;;;;;;;;;;1827200;78;21243;-56
2023/01/26 12:06:40;;;;;;;56.48;23.42;;;;;;;;;;1827681;78;21065;-54
2023/01/26 12:09:17;;;;;;;35.30;17.65;;;;;;;;;;1827564;78;21514;-56
2023/01/26 12:11:53;;;;;;;40.23;19.27;;;;;;;;;;1827714;78;21126;-56
2023/01/26 12:14:23;;;;;;;55.48;25.15;;;;;;;;;;1827699;78;21049;-56
2023/01/26 12:17:02;;;;;;;50.78;24.52;;;;;;;;;;1827477;78;21123;-56
2023/01/26 12:19:48;;;;;;;48.95;21.85;;;;;;;;;;1827623;78;21072;-54
2023/01/26 12:22:27;;;;;;;45.00;20.55;;;;;;;;;;1827600;78;21189;-55
2023/01/26 12:25:03;;;;;;;65.75;27.22;;;;;;;;;;1826365;77;21259;-54
2023/01/26 12:27:33;;;;;;;62.10;30.30;;;;;;;;;;1784371;78;21068;-54
2023/01/26 12:30:03;;;;;;;77.30;31.12;;;;;;;;;;1827573;78;21139;-54
2023/01/26 12:32:33;;;;;;;69.15;28.25;;;;;;;;;;1827573;78;21127;-55
2023/01/26 12:35:01;;;;;;;65.12;28.67;;;;;;;;;;1827388;78;21197;-68
2023/01/26 12:37:34;;;;;;;61.92;27.48;;;;;;;;;;1826627;78;21058;-66
2023/01/26 12:40:16;;;;;;;63.23;28.07;;;;;;;;;;1827257;78;21068;-66
2023/01/26 12:42:46;;;;;;;67.22;29.30;;;;;;;;;;1827045;78;21268;-59
2023/01/26 12:45:16;;;;;;;61.42;29.05;;;;;;;;;;1827251;78;21053;-60
2023/01/26 12:47:46;;;;;;;51.40;25.30;;;;;;;;;;1825773;78;21048;-64
2023/01/26 12:50:21;;;;;;;47.08;22.82;;;;;;;;;;1826935;78;21076;-62
2023/01/26 12:52:54;;;;;;;56.55;27.55;;;;;;;;;;1826966;78;21656;-63
2023/01/26 12:55:30;;;;;;;49.90;25.50;;;;;;;;;;1827076;78;21487;-66
2023/01/26 12:58:00;;;;;;;42.90;20.05;;;;;;;;;;1827104;77;21074;-64
2023/01/26 13:00:33;;;;;;;55.90;24.35;;;;;;;;;;1827276;78;21519;-68
2023/01/26 13:03:08;;;;;;;57.53;25.75;;;;;;;;;;1827461;78;21159;-67
2023/01/26 13:05:38;;;;;;;48.92;21.90;;;;;;;;;;1796986;78;21352;-63
2023/01/26 13:08:08;;;;;;;59.73;23.22;;;;;;;;;;1824650;78;21468;-66
2023/01/26 13:10:38;;;;;;;64.95;23.52;;;;;;;;;;1815190;78;21137;-63
2023/01/26 13:13:20;;;;;;;55.92;23.18;;;;;;;;;;1841256;78;21133;-65
